Decoded Metar for FJDG (DIEGO GARCIA ISLAND in DIEGO GARCIA ISLAND) (IATA:N/A) | Meteo·Mobile Aviation Weather
aviador You're here:

FJDG Decoded Metar

DIEGO GARCIA ISLAND in DIEGO GARCIA ISLAND
Report Time2020-02-26 10:55:00
UTC Time2020-02-26 12:01:07
Flight Rules vfr VFR
Wind100° at 09 kt
W.Decomp.*RWY 13: 8.3 kt HW 3.4 kt LCW
Visibility9999 m
Phenomena:N/A
Clouds:Few 018 Hf
Scattered 220 Hf
Expected CloudBase > 2,400 ft AGL from Temp-Dew spread
CeilingNone
Temp33°C (ISA +18)
Dew Point27°C (71% RH)
Heat Index43.9°C
QNH1007 hPa
Density Alt2,730 ft
Elevation10 ft
Report Wrong Elevation
Raw Report
FJDG 261055Z COR 10009KT 9999 FEW018 SCT220 33/27 A2974 RMK SLP068
T03330274=

Extra information for FJDG:More info

Metar Taf Metar & Taf Last 4 Metars F.Rules Stats Wind Profile Meteogram Temp Stats Airport Information Weather charts Add Link Nearby VenuesMetar ALERT Operation Metar Decoded Social comments